Time;durP1;ratioP1;P1;durP2;ratioP2;P2;SDS_P1;SDS_P2;PMS_P1;PMS_P2;Temp;Humidity;BMP_temperature;BMP_pressure;BME280_temperature;BME280_humidity;BME280_pressure;Samples;Min_cycle;Max_cycle;Signal;HPM_P1;HPM_P2
2021/09/16 00:01:40;;;;;;;;;8.25;8.25;;;;;;;;4991177;28;45269;-77
2021/09/16 00:04:05;;;;;;;;;6.75;6.75;;;;;;;;4991745;28;45418;-77
2021/09/16 00:06:31;;;;;;;;;11.25;8.75;;;;;;;;4992844;28;45506;-77
2021/09/16 00:08:56;;;;;;;;;9.00;8.00;;;;;;;;4991987;28;46107;-76
2021/09/16 00:11:21;;;;;;;;;8.00;8.00;;;;;;;;4991836;28;45521;-76
2021/09/16 00:13:47;;;;;;;;;8.25;8.00;;;;;;;;4991877;28;45399;-76
2021/09/16 00:16:12;;;;;;;;;8.50;8.50;;;;;;;;4991077;28;45386;-76
2021/09/16 00:18:37;;;;;;;;;10.75;9.75;;;;;;;;4974325;28;46192;-76
2021/09/16 00:21:03;;;;;;;;;13.00;10.00;;;;;;;;4992680;28;45502;-77
2021/09/16 00:23:28;;;;;;;;;10.75;9.50;;;;;;;;4991219;28;45283;-77
2021/09/16 00:25:53;;;;;;;;;11.75;9.25;;;;;;;;4991107;28;45367;-76
2021/09/16 00:28:18;;;;;;;;;7.75;6.50;;;;;;;;4989479;28;45392;-77
2021/09/16 00:30:43;;;;;;;;;11.75;11.75;;;;;;;;4991249;28;45373;-77
2021/09/16 00:33:09;;;;;;;;;12.50;11.75;;;;;;;;4991334;28;45441;-77
2021/09/16 00:35:34;;;;;;;;;11.00;9.50;;;;;;;;4990984;28;45470;-77
2021/09/16 00:37:59;;;;;;;;;8.75;8.75;;;;;;;;4990812;28;47033;-77
2021/09/16 00:40:24;;;;;;;;;11.25;10.75;;;;;;;;4991202;28;45319;-77
2021/09/16 00:42:50;;;;;;;;;9.00;9.00;;;;;;;;4991135;28;45303;-77
2021/09/16 00:45:15;;;;;;;;;8.25;7.50;;;;;;;;4992960;28;45386;-77
2021/09/16 00:47:50;;;;;;;;;13.50;7.50;;;;;;;;4990595;28;45530;-77
2021/09/16 00:50:16;;;;;;;;;6.25;6.25;;;;;;;;4990633;28;45489;-76
2021/09/16 00:52:41;;;;;;;;;11.75;11.00;;;;;;;;4990734;28;45343;-76
2021/09/16 00:55:08;;;;;;;;;11.00;8.25;;;;;;;;4990885;28;45351;-77
2021/09/16 00:57:33;;;;;;;;;8.00;6.50;;;;;;;;4992040;28;45560;-77
2021/09/16 01:00:00;;;;;;;;;12.75;10.25;;;;;;;;4991395;28;45414;-77
2021/09/16 01:02:25;;;;;;;;;8.25;7.00;;;;;;;;4990931;28;45584;-76
2021/09/16 01:04:50;;;;;;;;;10.25;9.00;;;;;;;;4991036;28;45447;-78
2021/09/16 01:07:16;;;;;;;;;7.75;7.75;;;;;;;;4989188;28;46129;-77
2021/09/16 01:09:42;;;;;;;;;10.00;8.75;;;;;;;;4992610;28;45441;-76
2021/09/16 01:12:07;;;;;;;;;10.50;8.75;;;;;;;;4990772;28;45493;-78
2021/09/16 01:14:33;;;;;;;;;11.00;6.25;;;;;;;;4990581;28;45333;-78
2021/09/16 01:17:00;;;;;;;;;15.75;14.25;;;;;;;;4990151;28;46159;-77
2021/09/16 01:19:25;;;;;;;;;9.50;9.50;;;;;;;;4990501;28;45420;-78
2021/09/16 01:21:50;;;;;;;;;11.50;10.25;;;;;;;;4990401;28;45299;-75
2021/09/16 01:24:16;;;;;;;;;9.50;7.50;;;;;;;;4992442;28;45280;-76
2021/09/16 01:26:41;;;;;;;;;8.00;8.00;;;;;;;;4989938;28;46229;-77
2021/09/16 01:29:07;;;;;;;;;10.25;7.25;;;;;;;;4989686;28;45951;-77
2021/09/16 01:31:36;;;;;;;;;11.00;9.75;;;;;;;;4990218;28;45408;-77
2021/09/16 01:34:02;;;;;;;;;10.00;9.25;;;;;;;;4990299;28;45371;-75
2021/09/16 01:36:28;;;;;;;;;15.50;13.00;;;;;;;;4991937;28;45481;-77
2021/09/16 01:38:53;;;;;;;;;13.00;11.50;;;;;;;;4990226;28;45516;-77
2021/09/16 01:41:18;;;;;;;;;10.00;10.00;;;;;;;;4990186;28;45402;-75
2021/09/16 01:43:43;;;;;;;;;10.25;10.25;;;;;;;;4989530;28;45421;-77
2021/09/16 01:46:08;;;;;;;;;11.00;9.75;;;;;;;;4988617;28;46325;-76
2021/09/16 01:48:33;;;;;;;;;12.50;10.75;;;;;;;;4990862;28;45361;-76
2021/09/16 01:50:59;;;;;;;;;9.00;9.00;;;;;;;;4989644;28;45443;-77
2021/09/16 01:53:24;;;;;;;;;11.00;10.25;;;;;;;;4989904;28;45438;-75
2021/09/16 01:55:49;;;;;;;;;13.25;11.25;;;;;;;;4989094;28;46105;-78
2021/09/16 01:58:14;;;;;;;;;8.25;8.25;;;;;;;;4989627;28;45469;-77
2021/09/16 02:00:39;;;;;;;;;9.25;8.25;;;;;;;;4990546;28;45336;-77
2021/09/16 02:03:05;;;;;;;;;8.00;8.00;;;;;;;;4973701;28;45705;-76
2021/09/16 02:05:30;;;;;;;;;13.75;12.75;;;;;;;;4989514;28;45461;-75
2021/09/16 02:07:55;;;;;;;;;10.50;10.50;;;;;;;;4989353;28;45440;-76
2021/09/16 02:10:20;;;;;;;;;9.25;9.25;;;;;;;;4989966;28;45454;-77
2021/09/16 02:12:45;;;;;;;;;13.25;12.25;;;;;;;;4989567;28;45427;-77
2021/09/16 02:15:11;;;;;;;;;7.50;7.50;;;;;;;;4991656;28;46226;-78
2021/09/16 02:17:36;;;;;;;;;8.75;6.00;;;;;;;;4989579;28;45448;-77
2021/09/16 02:20:01;;;;;;;;;10.00;9.00;;;;;;;;4989558;28;45417;-76
2021/09/16 02:22:26;;;;;;;;;9.75;9.00;;;;;;;;4990800;28;45627;-77
2021/09/16 02:24:52;;;;;;;;;9.00;8.25;;;;;;;;4992097;28;45649;-78
2021/09/16 02:27:17;;;;;;;;;10.75;8.00;;;;;;;;4993544;28;45346;-77
2021/09/16 02:29:42;;;;;;;;;9.00;7.75;;;;;;;;4991248;28;45477;-77
2021/09/16 02:32:08;;;;;;;;;8.00;7.25;;;;;;;;4992596;28;45456;-77
2021/09/16 02:34:34;;;;;;;;;8.00;8.00;;;;;;;;4992372;28;45472;-77
2021/09/16 02:36:59;;;;;;;;;10.75;10.75;;;;;;;;4992707;28;45324;-78
2021/09/16 02:39:24;;;;;;;;;11.25;10.00;;;;;;;;4994898;28;45335;-77
2021/09/16 02:41:49;;;;;;;;;8.75;6.75;;;;;;;;4992330;28;45407;-77
2021/09/16 02:44:14;;;;;;;;;11.00;9.00;;;;;;;;4991987;28;45441;-78
2021/09/16 02:46:40;;;;;;;;;9.75;8.25;;;;;;;;4992265;28;47895;-77
2021/09/16 02:49:05;;;;;;;;;9.25;8.00;;;;;;;;4992504;28;45383;-77
2021/09/16 02:51:30;;;;;;;;;6.75;6.75;;;;;;;;4975897;28;45505;-76
2021/09/16 02:53:55;;;;;;;;;9.00;6.25;;;;;;;;4992760;28;46133;-76
2021/09/16 02:56:20;;;;;;;;;9.25;9.00;;;;;;;;4991970;28;46080;-76
2021/09/16 02:58:46;;;;;;;;;7.75;7.75;;;;;;;;4992339;28;45291;-76
2021/09/16 03:01:11;;;;;;;;;7.75;6.50;;;;;;;;4992214;28;45519;-77
2021/09/16 03:03:36;;;;;;;;;8.50;7.25;;;;;;;;4992809;28;46346;-76
2021/09/16 03:06:01;;;;;;;;;8.25;6.25;;;;;;;;4991949;28;45382;-75
2021/09/16 03:08:27;;;;;;;;;6.25;6.25;;;;;;;;4990726;28;45481;-75
2021/09/16 03:10:52;;;;;;;;;9.50;8.00;;;;;;;;4991976;28;45339;-78
2021/09/16 03:13:17;;;;;;;;;9.00;8.00;;;;;;;;4991961;28;45404;-75
2021/09/16 03:15:42;;;;;;;;;6.50;6.50;;;;;;;;4991594;28;45330;-75
2021/09/16 03:18:07;;;;;;;;;10.75;9.00;;;;;;;;4993841;28;45553;-76
2021/09/16 03:20:33;;;;;;;;;10.50;8.75;;;;;;;;4991683;28;45482;-75
2021/09/16 03:22:58;;;;;;;;;9.00;9.00;;;;;;;;4991418;28;47843;-76
2021/09/16 03:25:23;;;;;;;;;6.25;6.25;;;;;;;;4991186;28;45454;-75
2021/09/16 03:27:48;;;;;;;;;8.00;8.00;;;;;;;;4991978;27;45467;-77
2021/09/16 03:30:14;;;;;;;;;8.75;7.75;;;;;;;;4999623;27;45625;-77
2021/09/16 03:32:40;;;;;;;;;7.00;7.00;;;;;;;;4991540;28;46919;-77
2021/09/16 03:35:06;;;;;;;;;7.00;7.00;;;;;;;;4990833;28;45492;-78
2021/09/16 03:37:31;;;;;;;;;9.00;7.75;;;;;;;;4991492;28;45304;-77
2021/09/16 03:39:56;;;;;;;;;8.75;8.75;;;;;;;;4991142;28;45341;-77
2021/09/16 03:42:22;;;;;;;;;7.25;6.50;;;;;;;;4993452;28;46193;-76
2021/09/16 03:44:47;;;;;;;;;10.25;7.00;;;;;;;;4989600;28;45248;-77
2021/09/16 03:47:12;;;;;;;;;9.00;8.25;;;;;;;;4990025;28;45320;-76
2021/09/16 03:49:40;;;;;;;;;6.75;5.75;;;;;;;;4991265;28;45461;-76
2021/09/16 03:52:06;;;;;;;;;9.75;8.75;;;;;;;;4990705;28;47299;-75
2021/09/16 03:54:32;;;;;;;;;12.50;9.50;;;;;;;;4992300;28;45458;-76
2021/09/16 03:56:57;;;;;;;;;5.75;5.50;;;;;;;;4991682;28;45465;-75
2021/09/16 03:59:22;;;;;;;;;10.25;8.25;;;;;;;;4991116;28;45434;-75
2021/09/16 04:01:48;;;;;;;;;6.75;6.75;;;;;;;;4990904;28;45414;-76
2021/09/16 04:04:13;;;;;;;;;6.00;6.00;;;;;;;;4991107;28;45371;-76
2021/09/16 04:06:38;;;;;;;;;10.50;10.50;;;;;;;;4991920;28;45472;-75
2021/09/16 04:09:03;;;;;;;;;10.25;8.50;;;;;;;;4992060;28;45294;-78
2021/09/16 04:11:29;;;;;;;;;8.50;7.50;;;;;;;;4990298;28;46029;-75
2021/09/16 04:13:54;;;;;;;;;7.75;7.75;;;;;;;;4990338;28;45472;-75
2021/09/16 04:16:19;;;;;;;;;9.25;8.00;;;;;;;;4990807;28;45370;-78
2021/09/16 04:18:44;;;;;;;;;12.00;9.00;;;;;;;;4990612;28;45458;-75
2021/09/16 04:21:09;;;;;;;;;10.75;7.75;;;;;;;;4992163;28;46230;-77
2021/09/16 04:23:35;;;;;;;;;11.00;11.00;;;;;;;;4988432;28;45462;-77
2021/09/16 04:26:00;;;;;;;;;12.00;12.00;;;;;;;;4988594;28;45536;-75
2021/09/16 04:28:25;;;;;;;;;13.75;12.50;;;;;;;;4990585;28;45433;-76
2021/09/16 04:30:50;;;;;;;;;18.00;15.00;;;;;;;;4972431;28;46982;-77
2021/09/16 04:33:15;;;;;;;;;15.00;12.00;;;;;;;;4992241;28;45580;-79
2021/09/16 04:35:41;;;;;;;;;15.50;13.50;;;;;;;;4990622;28;45425;-75
2021/09/16 04:38:06;;;;;;;;;20.00;16.25;;;;;;;;4989848;28;45481;-78
2021/09/16 04:40:31;;;;;;;;;12.25;11.25;;;;;;;;4990268;28;46331;-78
2021/09/16 04:42:56;;;;;;;;;10.50;9.50;;;;;;;;4990512;28;45494;-75
2021/09/16 04:45:21;;;;;;;;;15.25;12.25;;;;;;;;5003800;27;45437;-75
2021/09/16 04:47:47;;;;;;;;;10.50;9.00;;;;;;;;4993626;27;45525;-75
2021/09/16 04:50:12;;;;;;;;;15.00;13.00;;;;;;;;4989909;28;45580;-76
2021/09/16 04:52:38;;;;;;;;;12.50;12.00;;;;;;;;4989728;28;45955;-76
2021/09/16 04:55:04;;;;;;;;;17.25;10.00;;;;;;;;5021838;27;45397;-76
2021/09/16 04:57:29;;;;;;;;;19.25;14.25;;;;;;;;5002093;27;45288;-75
2021/09/16 04:59:55;;;;;;;;;16.75;16.00;;;;;;;;4989031;28;46357;-75
2021/09/16 05:02:20;;;;;;;;;17.25;15.00;;;;;;;;4988193;28;45308;-77
2021/09/16 05:04:45;;;;;;;;;19.75;13.50;;;;;;;;4990060;27;45737;-78
2021/09/16 05:07:10;;;;;;;;;16.75;16.00;;;;;;;;4989874;28;45538;-79
2021/09/16 05:09:36;;;;;;;;;18.75;16.50;;;;;;;;4990982;28;45618;-79
2021/09/16 05:12:01;;;;;;;;;29.75;23.75;;;;;;;;4991227;28;45320;-77
2021/09/16 05:14:26;;;;;;;;;17.50;16.00;;;;;;;;4989615;28;45273;-78
2021/09/16 05:16:52;;;;;;;;;25.75;23.50;;;;;;;;4989204;28;45567;-77
2021/09/16 05:19:17;;;;;;;;;28.25;23.50;;;;;;;;4989376;28;47214;-79
2021/09/16 05:21:43;;;;;;;;;17.00;16.00;;;;;;;;4988973;28;45436;-79
2021/09/16 05:24:08;;;;;;;;;26.75;22.50;;;;;;;;4991246;28;45403;-79
2021/09/16 05:26:33;;;;;;;;;18.25;17.00;;;;;;;;4989410;28;45480;-79
2021/09/16 05:28:59;;;;;;;;;13.75;13.75;;;;;;;;4988856;28;46079;-78
2021/09/16 05:31:24;;;;;;;;;19.75;18.50;;;;;;;;4987476;28;45431;-79
2021/09/16 05:33:49;;;;;;;;;19.00;12.00;;;;;;;;4989144;28;45459;-80
2021/09/16 05:36:14;;;;;;;;;17.50;14.00;;;;;;;;4990978;28;45513;-80
2021/09/16 05:38:40;;;;;;;;;13.75;13.75;;;;;;;;4987645;28;46362;-79
2021/09/16 05:41:05;;;;;;;;;17.25;16.00;;;;;;;;4987446;28;45455;-78
2021/09/16 05:43:31;;;;;;;;;17.00;13.75;;;;;;;;4987643;28;45393;-78
2021/09/16 05:45:56;;;;;;;;;12.25;11.75;;;;;;;;4988850;28;45441;-78
2021/09/16 05:48:23;;;;;;;;;15.50;13.00;;;;;;;;4990637;28;46223;-76
2021/09/16 05:50:48;;;;;;;;;11.25;11.25;;;;;;;;4970900;28;45542;-78
2021/09/16 05:53:14;;;;;;;;;10.00;8.50;;;;;;;;4988716;28;45468;-77
2021/09/16 05:55:40;;;;;;;;;11.00;10.25;;;;;;;;4988588;28;45398;-79
2021/09/16 05:58:06;;;;;;;;;14.25;11.50;;;;;;;;4991146;28;46954;-78
2021/09/16 06:00:31;;;;;;;;;13.00;10.00;;;;;;;;4993506;28;45251;-79
2021/09/16 06:02:56;;;;;;;;;14.00;13.50;;;;;;;;4992629;28;45447;-80
2021/09/16 06:05:22;;;;;;;;;15.75;12.00;;;;;;;;4991545;28;45321;-78
2021/09/16 06:07:47;;;;;;;;;11.75;9.00;;;;;;;;4991416;28;45949;-77
2021/09/16 06:10:12;;;;;;;;;7.00;7.00;;;;;;;;4992002;28;45494;-79
2021/09/16 06:12:38;;;;;;;;;6.00;6.00;;;;;;;;4993137;28;45380;-78
2021/09/16 06:15:03;;;;;;;;;12.75;10.00;;;;;;;;4991397;28;45276;-78
2021/09/16 06:17:29;;;;;;;;;14.50;9.75;;;;;;;;4991586;28;46262;-79
2021/09/16 06:19:54;;;;;;;;;10.50;9.00;;;;;;;;4989494;28;45405;-79
2021/09/16 06:22:19;;;;;;;;;9.75;8.50;;;;;;;;4972098;28;45327;-78
2021/09/16 06:24:45;;;;;;;;;8.50;8.00;;;;;;;;4991946;28;45426;-78
2021/09/16 06:27:12;;;;;;;;;10.00;8.00;;;;;;;;4975537;28;48163;-79
2021/09/16 06:29:37;;;;;;;;;8.50;7.25;;;;;;;;4991123;28;45708;-78
2021/09/16 06:32:03;;;;;;;;;10.50;8.50;;;;;;;;4991403;28;45491;-79
2021/09/16 06:34:28;;;;;;;;;7.50;7.50;;;;;;;;4989378;28;45345;-79
2021/09/16 06:36:53;;;;;;;;;14.50;12.25;;;;;;;;4990827;28;45573;-82
2021/09/16 06:39:18;;;;;;;;;13.25;9.00;;;;;;;;4993159;28;45300;-80
2021/09/16 06:41:44;;;;;;;;;8.25;8.25;;;;;;;;4990944;28;45360;-79
2021/09/16 06:44:09;;;;;;;;;10.00;9.00;;;;;;;;4990493;28;45960;-78
2021/09/16 06:46:35;;;;;;;;;12.25;8.50;;;;;;;;4972354;28;46079;-80
2021/09/16 06:49:00;;;;;;;;;11.25;9.00;;;;;;;;4989981;28;45300;-80
2021/09/16 06:51:26;;;;;;;;;10.50;9.00;;;;;;;;4993357;28;46441;-80
2021/09/16 06:53:51;;;;;;;;;5.75;5.00;;;;;;;;4990999;28;45395;-79
2021/09/16 06:56:16;;;;;;;;;6.50;6.50;;;;;;;;4990806;28;46340;-79
2021/09/16 06:58:42;;;;;;;;;7.50;7.00;;;;;;;;4988659;28;45361;-80
2021/09/16 07:01:07;;;;;;;;;10.00;8.25;;;;;;;;4989100;28;45441;-79
2021/09/16 07:03:32;;;;;;;;;9.25;9.00;;;;;;;;4991536;28;45316;-79
2021/09/16 07:05:57;;;;;;;;;9.25;9.00;;;;;;;;4990038;28;45395;-80
2021/09/16 07:08:23;;;;;;;;;9.25;8.00;;;;;;;;4989859;28;45492;-80
2021/09/16 07:10:48;;;;;;;;;8.75;8.75;;;;;;;;4990432;28;45422;-80
2021/09/16 07:13:13;;;;;;;;;11.50;10.00;;;;;;;;4990918;28;45548;-80
2021/09/16 07:15:38;;;;;;;;;8.00;6.00;;;;;;;;4991231;28;45537;-80
2021/09/16 07:18:04;;;;;;;;;6.50;5.75;;;;;;;;4991979;28;45468;-79
2021/09/16 07:20:29;;;;;;;;;9.00;7.75;;;;;;;;4990471;28;45534;-79
2021/09/16 07:22:54;;;;;;;;;10.00;6.50;;;;;;;;4990718;28;45906;-81
2021/09/16 07:25:20;;;;;;;;;8.50;8.25;;;;;;;;4990649;28;47186;-79
2021/09/16 07:27:47;;;;;;;;;15.00;13.25;;;;;;;;4990412;28;45557;-81
2021/09/16 07:30:12;;;;;;;;;9.00;6.25;;;;;;;;4974704;28;45443;-81
2021/09/16 07:32:38;;;;;;;;;11.75;8.00;;;;;;;;4990665;28;45404;-82
2021/09/16 07:35:03;;;;;;;;;8.00;8.00;;;;;;;;4990395;28;46125;-79
2021/09/16 07:37:28;;;;;;;;;8.00;7.50;;;;;;;;4990488;28;45359;-80
2021/09/16 07:39:54;;;;;;;;;16.25;14.75;;;;;;;;4989873;28;45175;-81
2021/09/16 07:42:19;;;;;;;;;9.50;9.25;;;;;;;;4992274;28;45547;-79
2021/09/16 07:44:44;;;;;;;;;7.00;7.00;;;;;;;;4990148;28;45477;-81
2021/09/16 07:47:09;;;;;;;;;10.00;9.00;;;;;;;;4989909;28;45894;-79
2021/09/16 07:49:35;;;;;;;;;5.50;5.50;;;;;;;;4990284;28;45275;-79
2021/09/16 07:52:00;;;;;;;;;6.50;4.00;;;;;;;;4990432;28;45648;-79
2021/09/16 07:54:25;;;;;;;;;5.00;4.00;;;;;;;;4974730;28;48178;-80
2021/09/16 07:56:51;;;;;;;;;5.00;5.00;;;;;;;;4989004;28;45290;-80
2021/09/16 07:59:16;;;;;;;;;3.00;3.00;;;;;;;;4990831;28;45295;-78
2021/09/16 08:01:42;;;;;;;;;4.00;4.00;;;;;;;;4990153;28;45344;-80
2021/09/16 08:04:07;;;;;;;;;4.00;4.00;;;;;;;;4989312;28;46439;-81
2021/09/16 08:06:32;;;;;;;;;5.00;3.50;;;;;;;;4991242;28;45295;-80
2021/09/16 08:08:57;;;;;;;;;4.75;3.75;;;;;;;;4990648;28;45465;-79
2021/09/16 08:11:23;;;;;;;;;8.00;6.25;;;;;;;;4990294;28;45506;-79
2021/09/16 08:13:49;;;;;;;;;6.50;5.25;;;;;;;;4989788;28;47008;-81
2021/09/16 08:16:14;;;;;;;;;4.00;4.00;;;;;;;;4988345;28;45386;-79
2021/09/16 08:18:39;;;;;;;;;6.00;5.75;;;;;;;;4990950;28;45476;-80
2021/09/16 08:21:05;;;;;;;;;4.75;3.00;;;;;;;;4989544;28;45580;-80
2021/09/16 08:23:30;;;;;;;;;4.00;4.00;;;;;;;;4989688;28;46126;-79
2021/09/16 08:25:55;;;;;;;;;4.00;4.00;;;;;;;;4966568;28;45409;-81
2021/09/16 08:28:21;;;;;;;;;5.00;4.75;;;;;;;;4989523;28;45372;-79
2021/09/16 08:30:46;;;;;;;;;4.75;4.50;;;;;;;;4989518;28;46274;-80
2021/09/16 08:33:12;;;;;;;;;4.25;2.50;;;;;;;;4991726;28;46274;-81
2021/09/16 08:35:37;;;;;;;;;6.50;5.50;;;;;;;;4989427;28;45524;-79
2021/09/16 08:38:03;;;;;;;;;10.75;9.25;;;;;;;;4990233;28;45484;-79
2021/09/16 08:40:28;;;;;;;;;11.00;10.00;;;;;;;;4989896;28;45402;-79
2021/09/16 08:42:53;;;;;;;;;7.00;7.00;;;;;;;;4988776;28;45545;-80
2021/09/16 08:45:20;;;;;;;;;9.50;7.75;;;;;;;;4991752;28;45366;-79
2021/09/16 08:47:46;;;;;;;;;8.25;7.75;;;;;;;;4989653;28;45391;-80
2021/09/16 08:50:13;;;;;;;;;7.50;6.25;;;;;;;;4990738;28;45654;-79
2021/09/16 08:52:39;;;;;;;;;6.00;5.25;;;;;;;;4989672;28;45643;-80
2021/09/16 08:55:06;;;;;;;;;3.50;3.50;;;;;;;;4987947;28;45265;-79
2021/09/16 08:57:34;;;;;;;;;3.75;3.25;;;;;;;;4991283;28;45363;-80
2021/09/16 08:59:59;;;;;;;;;2.00;2.00;;;;;;;;4989530;28;45390;-78
2021/09/16 09:02:25;;;;;;;;;3.00;3.00;;;;;;;;4989718;28;47493;-79
2021/09/16 09:04:50;;;;;;;;;4.75;3.75;;;;;;;;4971349;28;45539;-78
2021/09/16 09:07:19;;;;;;;;;2.75;2.00;;;;;;;;4989858;28;45309;-80
2021/09/16 09:09:45;;;;;;;;;4.50;4.00;;;;;;;;4989150;28;45613;-80
2021/09/16 09:12:12;;;;;;;;;3.33;3.00;;;;;;;;4991123;28;45990;-80
2021/09/16 09:14:38;;;;;;;;;1.00;1.00;;;;;;;;4989310;28;45405;-80
2021/09/16 09:17:19;;;;;;;;;6.50;3.75;;;;;;;;4989612;28;45490;-81
2021/09/16 09:19:45;;;;;;;;;8.00;8.00;;;;;;;;4988643;28;45378;-80
2021/09/16 09:22:10;;;;;;;;;1.00;1.00;;;;;;;;4990465;28;45430;-79
2021/09/16 09:24:41;;;;;;;;;5.33;3.67;;;;;;;;4973244;28;45520;-80
2021/09/16 09:27:20;;;;;;;;;4.00;2.67;;;;;;;;4990890;28;45397;-80
2021/09/16 09:30:04;;;;;;;;;4.00;3.00;;;;;;;;4983570;28;45469;-78
2021/09/16 09:32:44;;;;;;;;;2.33;2.33;;;;;;;;4990019;28;46270;-79
2021/09/16 09:35:26;;;;;;;;;3.00;2.33;;;;;;;;4989802;28;45468;-78
2021/09/16 09:37:51;;;;;;;;;5.50;5.00;;;;;;;;4990346;28;45377;-80
2021/09/16 09:40:23;;;;;;;;;2.33;2.33;;;;;;;;4991735;28;45521;-79
2021/09/16 09:42:49;;;;;;;;;3.67;3.00;;;;;;;;4991385;28;45455;-80
2021/09/16 09:45:14;;;;;;;;;4.00;4.00;;;;;;;;4993457;28;45449;-79
2021/09/16 09:47:42;;;;;;;;;3.33;3.33;;;;;;;;4991112;28;45459;-78
2021/09/16 09:50:21;;;;;;;;;4.33;2.00;;;;;;;;4991896;28;45521;-79
2021/09/16 09:52:48;;;;;;;;;2.67;2.67;;;;;;;;4973745;28;47464;-79
2021/09/16 09:55:15;;;;;;;;;2.00;2.00;;;;;;;;4991488;28;45466;-78
2021/09/16 09:57:40;;;;;;;;;4.00;4.00;;;;;;;;4993189;28;45312;-80
2021/09/16 10:00:08;;;;;;;;;3.00;3.00;;;;;;;;4993096;28;45538;-78
2021/09/16 10:02:50;;;;;;;;;8.50;8.50;;;;;;;;4990707;28;46171;-78
2021/09/16 10:05:23;;;;;;;;;6.00;6.00;;;;;;;;4990766;28;45416;-78
2021/09/16 10:07:49;;;;;;;;;3.00;3.00;;;;;;;;4990920;28;45509;-79
2021/09/16 10:10:14;;;;;;;;;4.33;3.33;;;;;;;;4991053;28;45423;-78
2021/09/16 10:12:41;;;;;;;;;4.33;4.33;;;;;;;;4991994;28;46349;-79
2021/09/16 10:15:08;;;;;;;;;4.00;3.00;;;;;;;;4990361;28;45472;-79
2021/09/16 10:17:33;;;;;;;;;10.00;8.67;;;;;;;;4989515;28;45325;-79
2021/09/16 10:19:58;;;;;;;;;3.00;3.00;;;;;;;;4991024;28;45290;-78
2021/09/16 10:22:24;;;;;;;;;4.67;4.00;;;;;;;;4990615;28;46512;-78
2021/09/16 10:24:51;;;;;;;;;8.67;8.67;;;;;;;;4990697;28;45179;-78
2021/09/16 10:27:25;;;;;;;;;5.33;5.00;;;;;;;;4992999;28;45424;-79
2021/09/16 10:29:50;;;;;;;;;9.00;6.00;;;;;;;;4990975;28;45370;-77
2021/09/16 10:32:18;;;;;;;;;7.33;7.33;;;;;;;;4990415;28;46151;-79
2021/09/16 10:34:45;;;;;;;;;7.00;6.00;;;;;;;;4990486;28;45411;-78
2021/09/16 10:37:14;;;;;;;;;8.67;7.00;;;;;;;;4990997;28;45394;-77
2021/09/16 10:39:40;;;;;;;;;4.67;4.67;;;;;;;;4991037;28;45308;-79
2021/09/16 10:42:06;;;;;;;;;5.33;4.67;;;;;;;;4992035;28;46405;-79
2021/09/16 10:44:31;;;;;;;;;8.00;8.00;;;;;;;;4990394;28;45289;-78
2021/09/16 10:47:00;;;;;;;;;3.67;3.67;;;;;;;;4991004;28;45432;-79
2021/09/16 10:49:28;;;;;;;;;4.00;4.00;;;;;;;;4989184;28;45459;-78
2021/09/16 10:52:17;;;;;;;;;2.67;2.67;;;;;;;;4990113;28;45461;-78
2021/09/16 10:54:48;;;;;;;;;1.00;1.00;;;;;;;;4983926;28;45266;-78
2021/09/16 10:57:37;;;;;;;;;5.67;4.33;;;;;;;;4991397;28;45567;-78
2021/09/16 11:00:03;;;;;;;;;3.00;3.00;;;;;;;;4991955;28;45347;-79
2021/09/16 11:02:31;;;;;;;;;5.33;5.33;;;;;;;;4989092;28;45986;-79
2021/09/16 11:07:30;;;;;;;;;6.67;6.00;;;;;;;;4990413;28;45385;-79
2021/09/16 11:09:56;;;;;;;;;8.33;8.33;;;;;;;;4991549;28;45923;-78
2021/09/16 11:12:30;;;;;;;;;4.00;4.00;;;;;;;;4994474;28;45510;-78
2021/09/16 11:14:57;;;;;;;;;4.67;4.67;;;;;;;;4991049;28;45450;-79
2021/09/16 11:17:26;;;;;;;;;3.00;3.00;;;;;;;;4991397;28;45358;-80
2021/09/16 11:19:51;;;;;;;;;4.00;4.00;;;;;;;;4991754;28;45382;-79
2021/09/16 11:22:22;;;;;;;;;4.00;3.00;;;;;;;;4988573;28;46052;-78
2021/09/16 11:24:47;;;;;;;;;7.00;5.67;;;;;;;;4990845;28;45534;-79
2021/09/16 11:27:21;;;;;;;;;3.00;3.00;;;;;;;;4992760;28;45372;-79
2021/09/16 11:29:47;;;;;;;;;4.00;4.00;;;;;;;;4991147;28;45408;-80
2021/09/16 11:32:14;;;;;;;;;5.00;5.00;;;;;;;;4988580;28;45414;-78
2021/09/16 11:34:59;;;;;;;;;5.00;5.00;;;;;;;;4988724;28;45453;-79
2021/09/16 11:37:30;;;;;;;;;10.00;8.00;;;;;;;;4990379;28;45507;-80
2021/09/16 11:40:05;;;;;;;;;8.33;8.33;;;;;;;;4991160;28;45311;-80
2021/09/16 11:42:31;;;;;;;;;5.00;5.00;;;;;;;;4988526;28;47358;-80
2021/09/16 11:45:08;;;;;;;;;2.67;2.67;;;;;;;;4991118;28;45346;-81
2021/09/16 11:47:37;;;;;;;;;3.00;2.00;;;;;;;;4989877;28;45247;-80
2021/09/16 11:50:03;;;;;;;;;3.67;3.67;;;;;;;;4989141;28;45258;-81
2021/09/16 11:52:28;;;;;;;;;6.00;4.67;;;;;;;;4971583;28;47197;-81
2021/09/16 11:55:03;;;;;;;;;3.67;3.67;;;;;;;;4989173;28;45396;-79
2021/09/16 11:57:29;;;;;;;;;4.00;4.00;;;;;;;;4988622;28;45356;-80
2021/09/16 11:59:54;;;;;;;;;3.00;3.00;;;;;;;;4988646;28;45595;-80
2021/09/16 12:02:19;;;;;;;;;5.67;4.67;;;;;;;;4989955;28;45954;-79
2021/09/16 12:04:45;;;;;;;;;4.33;3.33;;;;;;;;4989852;28;45336;-80
2021/09/16 12:07:14;;;;;;;;;5.00;4.00;;;;;;;;4989939;28;45533;-79
2021/09/16 12:09:39;;;;;;;;;4.00;4.00;;;;;;;;4990903;27;45289;-81
2021/09/16 12:12:05;;;;;;;;;3.67;3.67;;;;;;;;4989964;28;46084;-80
2021/09/16 12:14:31;;;;;;;;;6.00;4.67;;;;;;;;4970808;28;45730;-79
2021/09/16 12:17:03;;;;;;;;;23.75;22.25;;;;;;;;4990247;28;45283;-79
2021/09/16 12:19:29;;;;;;;;;6.33;4.00;;;;;;;;4989390;28;45403;-79
2021/09/16 12:21:57;;;;;;;;;3.00;3.00;;;;;;;;4990013;28;46393;-78
2021/09/16 12:24:27;;;;;;;;;2.00;2.00;;;;;;;;4992055;28;45534;-79
2021/09/16 12:26:53;;;;;;;;;7.67;6.00;;;;;;;;4971222;28;45314;-81
2021/09/16 12:29:25;;;;;;;;;4.00;4.00;;;;;;;;4989394;28;45251;-79
2021/09/16 12:32:03;;;;;;;;;5.67;5.67;;;;;;;;4988978;28;45486;-80
2021/09/16 12:34:31;;;;;;;;;4.67;4.67;;;;;;;;4989170;28;45283;-80
2021/09/16 12:36:58;;;;;;;;;3.00;3.00;;;;;;;;4989024;28;45290;-79
2021/09/16 12:39:24;;;;;;;;;4.00;3.00;;;;;;;;4990998;28;45397;-78
2021/09/16 12:41:49;;;;;;;;;5.00;4.00;;;;;;;;4989502;28;46509;-79
2021/09/16 12:44:20;;;;;;;;;4.33;4.00;;;;;;;;4989862;28;45507;-80
2021/09/16 12:46:46;;;;;;;;;5.33;4.00;;;;;;;;4989754;28;45359;-79
2021/09/16 12:49:21;;;;;;;;;4.67;3.00;;;;;;;;4987052;28;45605;-80
2021/09/16 12:51:52;;;;;;;;;5.67;5.67;;;;;;;;4990074;28;46088;-79
2021/09/16 12:54:21;;;;;;;;;5.00;5.00;;;;;;;;4990609;28;45445;-79
2021/09/16 12:56:48;;;;;;;;;6.00;5.00;;;;;;;;4989154;28;45237;-80
2021/09/16 12:59:20;;;;;;;;;4.67;4.00;;;;;;;;4989206;28;45561;-79
2021/09/16 13:01:46;;;;;;;;;5.00;3.33;;;;;;;;4989792;28;46527;-79
2021/09/16 13:04:12;;;;;;;;;6.33;5.33;;;;;;;;4989194;28;45353;-79
2021/09/16 13:06:37;;;;;;;;;3.33;2.33;;;;;;;;4989580;28;45238;-78
2021/09/16 13:09:02;;;;;;;;;3.33;3.00;;;;;;;;4990226;28;45433;-79
2021/09/16 13:11:28;;;;;;;;;2.67;2.67;;;;;;;;4988320;28;46256;-79
2021/09/16 13:14:03;;;;;;;;;2.00;2.00;;;;;;;;4988499;28;45388;-80
2021/09/16 13:16:29;;;;;;;;;3.00;3.00;;;;;;;;4988359;28;45376;-79
2021/09/16 13:18:55;;;;;;;;;2.33;2.33;;;;;;;;4988751;28;45584;-79
2021/09/16 13:21:20;;;;;;;;;2.00;2.00;;;;;;;;4990634;28;46194;-79
2021/09/16 13:23:45;;;;;;;;;3.33;1.67;;;;;;;;4988548;28;45205;-80
2021/09/16 13:26:10;;;;;;;;;0.33;0.33;;;;;;;;4988230;28;45472;-81
2021/09/16 13:28:36;;;;;;;;;3.00;3.00;;;;;;;;4986864;28;45383;-80
2021/09/16 13:31:01;;;;;;;;;1.67;1.67;;;;;;;;4987273;28;46412;-79
2021/09/16 13:33:26;;;;;;;;;3.50;3.25;;;;;;;;4990378;28;45431;-80
2021/09/16 13:35:51;;;;;;;;;3.00;3.00;;;;;;;;4989036;28;45503;-79
2021/09/16 13:38:17;;;;;;;;;3.25;2.75;;;;;;;;4988700;28;45596;-81
2021/09/16 13:40:42;;;;;;;;;2.00;2.00;;;;;;;;4988616;28;46003;-78
2021/09/16 13:43:08;;;;;;;;;2.00;2.00;;;;;;;;4988715;28;45387;-80
2021/09/16 13:45:34;;;;;;;;;4.00;2.00;;;;;;;;4990173;28;45337;-80
2021/09/16 13:47:59;;;;;;;;;3.00;1.75;;;;;;;;4988688;28;45627;-79
2021/09/16 13:50:24;;;;;;;;;3.00;3.00;;;;;;;;4970594;28;46103;-79
2021/09/16 13:52:49;;;;;;;;;2.00;2.00;;;;;;;;4988272;28;45418;-79
2021/09/16 13:55:15;;;;;;;;;3.25;3.00;;;;;;;;4988699;28;45446;-79
2021/09/16 13:57:41;;;;;;;;;2.25;2.25;;;;;;;;4989174;28;45235;-80
2021/09/16 14:00:08;;;;;;;;;2.50;2.00;;;;;;;;4989610;28;45548;-80
2021/09/16 14:02:34;;;;;;;;;4.25;2.00;;;;;;;;4987524;28;45465;-80
2021/09/16 14:04:59;;;;;;;;;2.50;2.50;;;;;;;;4969957;28;45511;-77
2021/09/16 14:07:24;;;;;;;;;2.50;2.50;;;;;;;;4987739;28;45349;-79
2021/09/16 14:09:49;;;;;;;;;5.25;4.25;;;;;;;;4987889;28;45368;-77
2021/09/16 14:12:15;;;;;;;;;2.67;2.67;;;;;;;;4984587;28;45381;-79
2021/09/16 14:14:40;;;;;;;;;2.00;2.00;;;;;;;;4987845;28;45868;-77
2021/09/16 14:17:05;;;;;;;;;2.33;2.33;;;;;;;;4987601;28;45335;-78
2021/09/16 14:19:31;;;;;;;;;5.67;4.00;;;;;;;;4990132;28;45533;-78
2021/09/16 14:21:56;;;;;;;;;8.33;8.33;;;;;;;;4991178;28;45389;-79
2021/09/16 14:24:22;;;;;;;;;10.00;8.00;;;;;;;;4993459;28;45389;-78
2021/09/16 14:26:48;;;;;;;;;6.33;6.33;;;;;;;;4990941;28;45455;-79
2021/09/16 14:29:14;;;;;;;;;4.00;4.00;;;;;;;;4990242;28;46469;-80
2021/09/16 14:31:39;;;;;;;;;3.67;3.67;;;;;;;;4988802;28;45325;-79
2021/09/16 14:34:04;;;;;;;;;15.75;13.50;;;;;;;;4990434;28;45346;-78